sensor_id;sensor_type;location;lat;lon;timestamp;pressure;altitude;pressure_sealevel;temperature;humidity
57574;BME280;63722;48.858;21.906;2023-03-04T00:01:53;98560.81;;;22.28;31.46
57574;BME280;63722;48.858;21.906;2023-03-04T00:04:18;98558.66;;;22.25;31.20
57574;BME280;63722;48.858;21.906;2023-03-04T00:06:44;98558.41;;;22.27;31.38
57574;BME280;63722;48.858;21.906;2023-03-04T00:09:09;98553.84;;;22.27;31.58
57574;BME280;63722;48.858;21.906;2023-03-04T00:11:35;98549.59;;;22.26;31.59
57574;BME280;63722;48.858;21.906;2023-03-04T00:14:00;98550.91;;;22.29;31.67
57574;BME280;63722;48.858;21.906;2023-03-04T00:16:26;98544.25;;;22.26;31.53
57574;BME280;63722;48.858;21.906;2023-03-04T00:18:55;98546.09;;;22.26;31.50
57574;BME280;63722;48.858;21.906;2023-03-04T00:21:21;98538.91;;;22.26;31.49
57574;BME280;63722;48.858;21.906;2023-03-04T00:23:46;98539.97;;;22.25;31.64
57574;BME280;63722;48.858;21.906;2023-03-04T00:26:12;98535.66;;;22.24;31.56
57574;BME280;63722;48.858;21.906;2023-03-04T00:28:38;98536.78;;;22.28;31.62
57574;BME280;63722;48.858;21.906;2023-03-04T00:31:05;98538.91;;;22.26;31.37
57574;BME280;63722;48.858;21.906;2023-03-04T00:33:30;98529.81;;;22.27;31.64
57574;BME280;63722;48.858;21.906;2023-03-04T00:35:56;98534.34;;;22.27;31.49
57574;BME280;63722;48.858;21.906;2023-03-04T00:38:21;98531.94;;;22.25;31.65
57574;BME280;63722;48.858;21.906;2023-03-04T00:40:46;98531.94;;;22.25;31.46
57574;BME280;63722;48.858;21.906;2023-03-04T00:43:12;98523.94;;;22.25;31.42
57574;BME280;63722;48.858;21.906;2023-03-04T00:45:37;98518.84;;;22.24;31.58
57574;BME280;63722;48.858;21.906;2023-03-04T00:48:03;98515.13;;;22.25;31.76
57574;BME280;63722;48.858;21.906;2023-03-04T00:50:48;98511.38;;;22.26;31.82
57574;BME280;63722;48.858;21.906;2023-03-04T00:53:15;98504.13;;;22.21;31.67
57574;BME280;63722;48.858;21.906;2023-03-04T00:55:41;98496.13;;;22.21;31.72
57574;BME280;63722;48.858;21.906;2023-03-04T00:58:06;98491.34;;;22.23;31.44
57574;BME280;63722;48.858;21.906;2023-03-04T01:00:32;98492.94;;;22.24;31.56
57574;BME280;63722;48.858;21.906;2023-03-04T01:02:57;98503.63;;;22.24;31.42
57574;BME280;63722;48.858;21.906;2023-03-04T01:05:22;98497.75;;;22.22;31.52
57574;BME280;63722;48.858;21.906;2023-03-04T01:07:48;98504.97;;;22.22;31.79
57574;BME280;63722;48.858;21.906;2023-03-04T01:10:14;98501.19;;;22.23;31.71
57574;BME280;63722;48.858;21.906;2023-03-04T01:12:40;98494.81;;;22.24;31.78
57574;BME280;63722;48.858;21.906;2023-03-04T01:15:07;98499.34;;;22.23;31.83
57574;BME280;63722;48.858;21.906;2023-03-04T01:17:33;98493.44;;;22.21;31.64
57574;BME280;63722;48.858;21.906;2023-03-04T01:19:58;98498.78;;;22.21;31.49
57574;BME280;63722;48.858;21.906;2023-03-04T01:22:24;98500.66;;;22.21;31.67
57574;BME280;63722;48.858;21.906;2023-03-04T01:24:49;98502.03;;;22.23;31.60
57574;BME280;63722;48.858;21.906;2023-03-04T01:27:15;98495.88;;;22.23;32.16
57574;BME280;63722;48.858;21.906;2023-03-04T01:29:41;98492.13;;;22.24;31.67
57574;BME280;63722;48.858;21.906;2023-03-04T01:32:06;98481.97;;;22.21;31.71
57574;BME280;63722;48.858;21.906;2023-03-04T01:34:32;98477.44;;;22.21;31.75
57574;BME280;63722;48.858;21.906;2023-03-04T01:36:57;98476.38;;;22.22;31.92
57574;BME280;63722;48.858;21.906;2023-03-04T01:39:22;98466.75;;;22.21;31.81
57574;BME280;63722;48.858;21.906;2023-03-04T01:41:48;98467.31;;;22.23;31.72
57574;BME280;63722;48.858;21.906;2023-03-04T01:44:13;98453.94;;;22.23;31.77
57574;BME280;63722;48.858;21.906;2023-03-04T01:46:43;98456.09;;;22.26;31.77
57574;BME280;63722;48.858;21.906;2023-03-04T01:49:13;98450.19;;;22.24;31.77
57574;BME280;63722;48.858;21.906;2023-03-04T01:51:42;98447.00;;;22.22;31.83
57574;BME280;63722;48.858;21.906;2023-03-04T01:54:08;98439.25;;;22.21;31.49
57574;BME280;63722;48.858;21.906;2023-03-04T01:56:36;98429.34;;;22.21;31.70
57574;BME280;63722;48.858;21.906;2023-03-04T01:59:16;98432.59;;;22.23;31.79
57574;BME280;63722;48.858;21.906;2023-03-04T02:01:46;98435.78;;;22.20;31.75
57574;BME280;63722;48.858;21.906;2023-03-04T02:04:14;98430.44;;;22.20;32.10
57574;BME280;63722;48.858;21.906;2023-03-04T02:06:40;98421.59;;;22.20;31.81
57574;BME280;63722;48.858;21.906;2023-03-04T02:09:07;98426.16;;;22.19;31.79
57574;BME280;63722;48.858;21.906;2023-03-04T02:11:35;98423.75;;;22.17;31.75
57574;BME280;63722;48.858;21.906;2023-03-04T02:14:01;98415.47;;;22.19;31.85
57574;BME280;63722;48.858;21.906;2023-03-04T02:16:26;98416.25;;;22.20;31.99
57574;BME280;63722;48.858;21.906;2023-03-04T02:18:52;98418.13;;;22.19;31.71
57574;BME280;63722;48.858;21.906;2023-03-04T02:21:32;98418.94;;;22.20;31.82
57574;BME280;63722;48.858;21.906;2023-03-04T02:26:32;98417.63;;;22.22;31.73
57574;BME280;63722;48.858;21.906;2023-03-04T02:28:59;98401.84;;;22.21;31.88
57574;BME280;63722;48.858;21.906;2023-03-04T02:31:40;98400.53;;;22.23;31.79
57574;BME280;63722;48.858;21.906;2023-03-04T02:34:30;98401.06;;;22.20;31.82
57574;BME280;63722;48.858;21.906;2023-03-04T02:36:56;98403.97;;;22.18;31.73
57574;BME280;63722;48.858;21.906;2023-03-04T02:39:36;98401.06;;;22.20;31.92
57574;BME280;63722;48.858;21.906;2023-03-04T02:42:03;98404.78;;;22.19;31.76
57574;BME280;63722;48.858;21.906;2023-03-04T02:44:31;98399.97;;;22.16;32.11
57574;BME280;63722;48.858;21.906;2023-03-04T02:46:58;98401.56;;;22.17;31.77
57574;BME280;63722;48.858;21.906;2023-03-04T02:49:26;98398.09;;;22.16;31.89
57574;BME280;63722;48.858;21.906;2023-03-04T02:51:58;98393.81;;;22.15;31.82
57574;BME280;63722;48.858;21.906;2023-03-04T02:54:25;98386.59;;;22.16;32.16
57574;BME280;63722;48.858;21.906;2023-03-04T02:56:53;98381.81;;;22.18;31.74
57574;BME280;63722;48.858;21.906;2023-03-04T02:59:20;98381.00;;;22.17;31.89
57574;BME280;63722;48.858;21.906;2023-03-04T03:01:46;98379.38;;;22.16;32.07
57574;BME280;63722;48.858;21.906;2023-03-04T03:04:12;98381.81;;;22.18;31.75
57574;BME280;63722;48.858;21.906;2023-03-04T03:06:38;98390.91;;;22.17;31.86
57574;BME280;63722;48.858;21.906;2023-03-04T03:09:04;98383.94;;;22.16;31.96
57574;BME280;63722;48.858;21.906;2023-03-04T03:11:30;98381.28;;;22.16;32.12
57574;BME280;63722;48.858;21.906;2023-03-04T03:13:56;98378.59;;;22.16;32.09
57574;BME280;63722;48.858;21.906;2023-03-04T03:16:21;98373.50;;;22.14;32.02
57574;BME280;63722;48.858;21.906;2023-03-04T03:18:47;98370.59;;;22.16;32.01
57574;BME280;63722;48.858;21.906;2023-03-04T03:21:12;98380.22;;;22.17;31.95
57574;BME280;63722;48.858;21.906;2023-03-04T03:23:38;98370.59;;;22.16;32.06
57574;BME280;63722;48.858;21.906;2023-03-04T03:26:03;98379.66;;;22.15;32.20
57574;BME280;63722;48.858;21.906;2023-03-04T03:28:29;98383.41;;;22.14;32.09
57574;BME280;63722;48.858;21.906;2023-03-04T03:30:54;98380.22;;;22.17;32.20
57574;BME280;63722;48.858;21.906;2023-03-04T03:33:20;98380.22;;;22.17;32.05
57574;BME280;63722;48.858;21.906;2023-03-04T03:35:45;98378.88;;;22.20;32.07
57574;BME280;63722;48.858;21.906;2023-03-04T03:38:10;98377.53;;;22.17;31.80
57574;BME280;63722;48.858;21.906;2023-03-04T03:40:36;98378.59;;;22.16;31.99
57574;BME280;63722;48.858;21.906;2023-03-04T03:43:01;98379.66;;;22.15;32.06
57574;BME280;63722;48.858;21.906;2023-03-04T03:45:27;98381.81;;;22.18;31.99
57574;BME280;63722;48.858;21.906;2023-03-04T03:47:52;98374.03;;;22.16;32.17
57574;BME280;63722;48.858;21.906;2023-03-04T03:50:18;98371.13;;;22.18;32.13
57574;BME280;63722;48.858;21.906;2023-03-04T03:52:43;98371.94;;;22.18;31.87
57574;BME280;63722;48.858;21.906;2023-03-04T03:55:08;98368.44;;;22.18;31.98
57574;BME280;63722;48.858;21.906;2023-03-04T03:57:34;98362.84;;;22.14;32.12
57574;BME280;63722;48.858;21.906;2023-03-04T03:59:59;98358.84;;;22.17;32.01
57574;BME280;63722;48.858;21.906;2023-03-04T04:02:25;98365.75;;;22.13;32.04
57574;BME280;63722;48.858;21.906;2023-03-04T04:04:50;98365.78;;;22.18;32.07
57574;BME280;63722;48.858;21.906;2023-03-04T04:07:16;98367.66;;;22.17;32.14
57574;BME280;63722;48.858;21.906;2023-03-04T04:09:41;98367.13;;;22.15;32.00
57574;BME280;63722;48.858;21.906;2023-03-04T04:12:07;98356.13;;;22.12;32.17
57574;BME280;63722;48.858;21.906;2023-03-04T04:14:33;98359.06;;;22.10;32.07
57574;BME280;63722;48.858;21.906;2023-03-04T04:16:58;98356.97;;;22.12;32.00
57574;BME280;63722;48.858;21.906;2023-03-04T04:19:24;98361.47;;;22.12;32.15
57574;BME280;63722;48.858;21.906;2023-03-04T04:21:49;98366.81;;;22.12;32.20
57574;BME280;63722;48.858;21.906;2023-03-04T04:24:15;98363.09;;;22.13;32.13
57574;BME280;63722;48.858;21.906;2023-03-04T04:26:41;98366.28;;;22.15;32.07
57574;BME280;63722;48.858;21.906;2023-03-04T04:29:06;98360.16;;;22.14;32.09
57574;BME280;63722;48.858;21.906;2023-03-04T04:31:32;98358.53;;;22.13;32.12
57574;BME280;63722;48.858;21.906;2023-03-04T04:33:58;98354.03;;;22.14;31.93
57574;BME280;63722;48.858;21.906;2023-03-04T04:36:23;98356.97;;;22.12;32.26
57574;BME280;63722;48.858;21.906;2023-03-04T04:38:48;98359.91;;;22.11;32.47
57574;BME280;63722;48.858;21.906;2023-03-04T04:41:19;98354.81;;;22.14;32.21
57574;BME280;63722;48.858;21.906;2023-03-04T04:43:46;98354.28;;;22.12;32.10
57574;BME280;63722;48.858;21.906;2023-03-04T04:46:11;98346.56;;;22.16;31.95
57574;BME280;63722;48.858;21.906;2023-03-04T04:48:36;98349.47;;;22.14;32.12
57574;BME280;63722;48.858;21.906;2023-03-04T04:51:02;98347.06;;;22.13;32.14
57574;BME280;63722;48.858;21.906;2023-03-04T04:53:27;98344.13;;;22.14;32.21
57574;BME280;63722;48.858;21.906;2023-03-04T04:55:52;98343.34;;;22.14;32.08
57574;BME280;63722;48.858;21.906;2023-03-04T04:58:18;98346.28;;;22.12;32.30
57574;BME280;63722;48.858;21.906;2023-03-04T05:00:43;98339.31;;;22.11;31.90
57574;BME280;63722;48.858;21.906;2023-03-04T05:03:09;98348.13;;;22.12;32.14
57574;BME280;63722;48.858;21.906;2023-03-04T05:05:34;98347.88;;;22.13;32.33
57574;BME280;63722;48.858;21.906;2023-03-04T05:07:59;98348.13;;;22.12;32.26
57574;BME280;63722;48.858;21.906;2023-03-04T05:10:25;98336.66;;;22.11;32.02
57574;BME280;63722;48.858;21.906;2023-03-04T05:12:50;98338.53;;;22.11;32.30
57574;BME280;63722;48.858;21.906;2023-03-04T05:15:16;98347.88;;;22.13;32.09
57574;BME280;63722;48.858;21.906;2023-03-04T05:17:42;98339.84;;;22.13;32.14
57574;BME280;63722;48.858;21.906;2023-03-04T05:20:08;98340.13;;;22.12;32.17
57574;BME280;63722;48.858;21.906;2023-03-04T05:22:33;98339.31;;;22.11;32.02
57574;BME280;63722;48.858;21.906;2023-03-04T05:24:59;98335.84;;;22.11;32.22
57574;BME280;63722;48.858;21.906;2023-03-04T05:27:24;98334.78;;;22.12;32.29
57574;BME280;63722;48.858;21.906;2023-03-04T05:29:50;98335.84;;;22.11;32.20
57574;BME280;63722;48.858;21.906;2023-03-04T05:32:15;98335.59;;;22.12;32.34
57574;BME280;63722;48.858;21.906;2023-03-04T05:34:40;98335.59;;;22.12;31.90
57574;BME280;63722;48.858;21.906;2023-03-04T05:37:06;98333.19;;;22.11;32.14
57574;BME280;63722;48.858;21.906;2023-03-04T05:39:31;98330.53;;;22.11;32.24
57574;BME280;63722;48.858;21.906;2023-03-04T05:41:57;98325.72;;;22.13;32.12
57574;BME280;63722;48.858;21.906;2023-03-04T05:44:22;98325.72;;;22.13;32.35
57574;BME280;63722;48.858;21.906;2023-03-04T05:46:47;98333.72;;;22.13;32.39
57574;BME280;63722;48.858;21.906;2023-03-04T05:49:13;98334.25;;;22.15;32.13
57574;BME280;63722;48.858;21.906;2023-03-04T05:51:38;98336.91;;;22.15;32.29
57574;BME280;63722;48.858;21.906;2023-03-04T05:54:03;98333.47;;;22.14;31.97
57574;BME280;63722;48.858;21.906;2023-03-04T05:56:29;98336.66;;;22.11;31.98
57574;BME280;63722;48.858;21.906;2023-03-04T05:58:56;98340.94;;;22.12;32.28
57574;BME280;63722;48.858;21.906;2023-03-04T06:01:23;98335.59;;;22.12;32.22
57574;BME280;63722;48.858;21.906;2023-03-04T06:03:48;98331.59;;;22.15;32.23
57574;BME280;63722;48.858;21.906;2023-03-04T06:06:14;98326.81;;;22.17;32.14
57574;BME280;63722;48.858;21.906;2023-03-04T06:08:39;98325.19;;;22.16;32.03
57574;BME280;63722;48.858;21.906;2023-03-04T06:11:04;98334.56;;;22.18;32.23
57574;BME280;63722;48.858;21.906;2023-03-04T06:13:30;98340.16;;;22.22;32.15
57574;BME280;63722;48.858;21.906;2023-03-04T06:15:57;98343.88;;;22.21;32.24
57574;BME280;63722;48.858;21.906;2023-03-04T06:18:24;98344.44;;;22.23;32.28
57574;BME280;63722;48.858;21.906;2023-03-04T06:20:49;98343.34;;;22.24;32.13
57574;BME280;63722;48.858;21.906;2023-03-04T06:23:15;98334.03;;;22.27;32.36
57574;BME280;63722;48.858;21.906;2023-03-04T06:25:41;98338.31;;;22.28;32.00
57574;BME280;63722;48.858;21.906;2023-03-04T06:28:07;98334.56;;;22.29;32.07
57574;BME280;63722;48.858;21.906;2023-03-04T06:30:32;98342.34;;;22.30;31.93
57574;BME280;63722;48.858;21.906;2023-03-04T06:32:57;98338.88;;;22.35;32.04
57574;BME280;63722;48.858;21.906;2023-03-04T06:35:23;98324.47;;;22.36;32.05
57574;BME280;63722;48.858;21.906;2023-03-04T06:37:48;98337.81;;;22.41;32.19
57574;BME280;63722;48.858;21.906;2023-03-04T06:40:14;98346.09;;;22.40;32.08
57574;BME280;63722;48.858;21.906;2023-03-04T06:42:40;98344.25;;;22.45;31.94
57574;BME280;63722;48.858;21.906;2023-03-04T06:45:06;98350.41;;;22.46;31.98
57574;BME280;63722;48.858;21.906;2023-03-04T06:47:32;98353.63;;;22.48;31.86
57574;BME280;63722;48.858;21.906;2023-03-04T06:49:57;98351.22;;;22.51;32.01
57574;BME280;63722;48.858;21.906;2023-03-04T06:52:23;98340.78;;;22.50;31.89
57574;BME280;63722;48.858;21.906;2023-03-04T06:54:48;98344.81;;;22.52;32.02
57574;BME280;63722;48.858;21.906;2023-03-04T06:57:14;98341.88;;;22.54;31.91
57574;BME280;63722;48.858;21.906;2023-03-04T06:59:39;98346.69;;;22.57;31.98
57574;BME280;63722;48.858;21.906;2023-03-04T07:02:05;98338.69;;;22.57;31.91
57574;BME280;63722;48.858;21.906;2023-03-04T07:04:31;98345.34;;;22.60;31.94
57574;BME280;63722;48.858;21.906;2023-03-04T07:06:56;98344.03;;;22.62;31.90
57574;BME280;63722;48.858;21.906;2023-03-04T07:09:22;98344.81;;;22.63;31.69
57574;BME280;63722;48.858;21.906;2023-03-04T07:11:47;98342.69;;;22.65;31.73
57574;BME280;63722;48.858;21.906;2023-03-04T07:14:13;98339.75;;;22.66;31.82
57574;BME280;63722;48.858;21.906;2023-03-04T07:16:38;98344.56;;;22.69;31.76
57574;BME280;63722;48.858;21.906;2023-03-04T07:19:04;98341.63;;;22.71;31.94
57574;BME280;63722;48.858;21.906;2023-03-04T07:21:29;98330.94;;;22.71;31.73
57574;BME280;63722;48.858;21.906;2023-03-04T07:23:55;98338.69;;;22.73;31.94
57574;BME280;63722;48.858;21.906;2023-03-04T07:26:20;98334.16;;;22.73;31.76
57574;BME280;63722;48.858;21.906;2023-03-04T07:28:46;98340.84;;;22.76;31.88
57574;BME280;63722;48.858;21.906;2023-03-04T07:33:43;98337.06;;;22.77;31.78
57574;BME280;63722;48.858;21.906;2023-03-04T07:36:08;98330.66;;;22.78;31.89
57574;BME280;63722;48.858;21.906;2023-03-04T07:38:35;98321.31;;;22.80;31.70
57574;BME280;63722;48.858;21.906;2023-03-04T07:41:00;98316.78;;;22.81;31.83
57574;BME280;63722;48.858;21.906;2023-03-04T07:43:26;98311.94;;;22.83;31.62
57574;BME280;63722;48.858;21.906;2023-03-04T07:45:51;98310.88;;;22.84;31.99
57574;BME280;63722;48.858;21.906;2023-03-04T07:48:17;98303.66;;;22.84;31.85
57574;BME280;63722;48.858;21.906;2023-03-04T07:50:42;98301.00;;;22.84;31.68
57574;BME280;63722;48.858;21.906;2023-03-04T07:53:07;98294.84;;;22.84;31.93
57574;BME280;63722;48.858;21.906;2023-03-04T07:55:33;98290.28;;;22.84;31.88
57574;BME280;63722;48.858;21.906;2023-03-04T07:57:58;98294.59;;;22.85;31.91
57574;BME280;63722;48.858;21.906;2023-03-04T08:00:24;98294.03;;;22.88;31.81
57574;BME280;63722;48.858;21.906;2023-03-04T08:02:50;98283.63;;;22.87;31.85
57574;BME280;63722;48.858;21.906;2023-03-04T08:05:15;98289.75;;;22.87;31.86
57574;BME280;63722;48.858;21.906;2023-03-04T08:07:41;98287.09;;;22.87;31.77
57574;BME280;63722;48.858;21.906;2023-03-04T08:10:06;98279.88;;;22.88;31.94
57574;BME280;63722;48.858;21.906;2023-03-04T08:12:33;98280.94;;;22.87;31.85
57574;BME280;63722;48.858;21.906;2023-03-04T08:14:59;98283.88;;;22.91;31.87
57574;BME280;63722;48.858;21.906;2023-03-04T08:17:24;98274.28;;;22.89;31.85
57574;BME280;63722;48.858;21.906;2023-03-04T08:19:49;98273.44;;;22.89;31.85
57574;BME280;63722;48.858;21.906;2023-03-04T08:22:15;98260.09;;;22.89;31.80
57574;BME280;63722;48.858;21.906;2023-03-04T08:24:41;98259.03;;;22.90;31.92
57574;BME280;63722;48.858;21.906;2023-03-04T08:27:06;98255.28;;;22.91;31.95
57574;BME280;63722;48.858;21.906;2023-03-04T08:29:31;98248.31;;;22.90;31.89
57574;BME280;63722;48.858;21.906;2023-03-04T08:31:57;98247.53;;;22.89;31.99
57574;BME280;63722;48.858;21.906;2023-03-04T08:34:25;98252.88;;;22.89;31.79
57574;BME280;63722;48.858;21.906;2023-03-04T08:36:51;98244.59;;;22.91;31.90
57574;BME280;63722;48.858;21.906;2023-03-04T08:39:17;98240.03;;;22.92;31.90
57574;BME280;63722;48.858;21.906;2023-03-04T08:41:43;98234.97;;;22.90;31.78
57574;BME280;63722;48.858;21.906;2023-03-04T08:44:09;98224.53;;;22.88;31.74
57574;BME280;63722;48.858;21.906;2023-03-04T08:46:36;98217.03;;;22.91;31.71
57574;BME280;63722;48.858;21.906;2023-03-04T08:49:02;98224.53;;;22.88;31.88
57574;BME280;63722;48.858;21.906;2023-03-04T08:51:28;98218.41;;;22.88;31.74
57574;BME280;63722;48.858;21.906;2023-03-04T08:53:53;98212.22;;;22.87;32.04
57574;BME280;63722;48.858;21.906;2023-03-04T08:56:19;98217.03;;;22.91;32.04
57574;BME280;63722;48.858;21.906;2023-03-04T08:58:44;98209.28;;;22.89;31.87
57574;BME280;63722;48.858;21.906;2023-03-04T09:01:13;98214.63;;;22.89;31.85
57574;BME280;63722;48.858;21.906;2023-03-04T09:03:39;98216.25;;;22.90;31.89
57574;BME280;63722;48.858;21.906;2023-03-04T09:06:05;98212.50;;;22.91;31.69
57574;BME280;63722;48.858;21.906;2023-03-04T09:08:31;98210.91;;;22.90;31.77
57574;BME280;63722;48.858;21.906;2023-03-04T09:10:57;98211.69;;;22.91;31.86
57574;BME280;63722;48.858;21.906;2023-03-04T09:13:23;98201.81;;;22.91;31.93
57574;BME280;63722;48.858;21.906;2023-03-04T09:15:50;98198.59;;;22.89;31.81
57574;BME280;63722;48.858;21.906;2023-03-04T09:18:17;98199.69;;;22.88;31.81
57574;BME280;63722;48.858;21.906;2023-03-04T09:20:43;98194.06;;;22.89;31.73
57574;BME280;63722;48.858;21.906;2023-03-04T09:23:09;98200.19;;;22.90;31.82
57574;BME280;63722;48.858;21.906;2023-03-04T09:25:35;98192.19;;;22.90;31.82
57574;BME280;63722;48.858;21.906;2023-03-04T09:28:01;98193.78;;;22.86;32.04
57574;BME280;63722;48.858;21.906;2023-03-04T09:30:26;98188.44;;;22.86;32.01
57574;BME280;63722;48.858;21.906;2023-03-04T09:32:52;98183.09;;;22.86;31.95
57574;BME280;63722;48.858;21.906;2023-03-04T09:35:18;98181.50;;;22.85;32.04
57574;BME280;63722;48.858;21.906;2023-03-04T09:37:43;98183.09;;;22.86;32.01
57574;BME280;63722;48.858;21.906;2023-03-04T09:40:17;98174.53;;;22.89;31.91
57574;BME280;63722;48.858;21.906;2023-03-04T09:42:47;98173.22;;;22.86;31.84
57574;BME280;63722;48.858;21.906;2023-03-04T09:45:20;98157.97;;;22.87;31.90
57574;BME280;63722;48.858;21.906;2023-03-04T09:47:48;98149.44;;;22.85;32.01
57574;BME280;63722;48.858;21.906;2023-03-04T09:50:17;98143.00;;;22.86;31.98
57574;BME280;63722;48.858;21.906;2023-03-04T09:58:39;98125.88;;;22.87;32.05
57574;BME280;63722;48.858;21.906;2023-03-04T10:01:09;98123.50;;;22.85;32.05
57574;BME280;63722;48.858;21.906;2023-03-04T10:03:50;98132.84;;;22.83;31.99
57574;BME280;63722;48.858;21.906;2023-03-04T10:06:20;98120.28;;;22.83;31.93
57574;BME280;63722;48.858;21.906;2023-03-04T10:09:38;98114.13;;;22.83;32.28
57574;BME280;63722;48.858;21.906;2023-03-04T10:11:47;98103.16;;;22.84;31.82
57574;BME280;63722;48.858;21.906;2023-03-04T10:16:48;98092.47;;;22.84;32.07
57574;BME280;63722;48.858;21.906;2023-03-04T10:21:44;98083.94;;;22.82;31.96
57574;BME280;63722;48.858;21.906;2023-03-04T10:24:16;98076.97;;;22.81;31.80
57574;BME280;63722;48.858;21.906;2023-03-04T10:26:51;98071.34;;;22.83;32.11
57574;BME280;63722;48.858;21.906;2023-03-04T10:29:20;98068.97;;;22.81;31.93
57574;BME280;63722;48.858;21.906;2023-03-04T10:31:47;98062.28;;;22.84;31.72
57574;BME280;63722;48.858;21.906;2023-03-04T10:34:15;98057.19;;;22.82;32.17
57574;BME280;63722;48.858;21.906;2023-03-04T10:37:01;98048.63;;;22.85;32.06
57574;BME280;63722;48.858;21.906;2023-03-04T10:39:34;98043.56;;;22.84;31.99
57574;BME280;63722;48.858;21.906;2023-03-04T10:42:01;98041.16;;;22.82;32.14
57574;BME280;63722;48.858;21.906;2023-03-04T10:44:27;98040.88;;;22.84;32.02
57574;BME280;63722;48.858;21.906;2023-03-04T10:46:55;98032.34;;;22.82;32.12
57574;BME280;63722;48.858;21.906;2023-03-04T10:49:22;98028.59;;;22.83;32.05
57574;BME280;63722;48.858;21.906;2023-03-04T10:57:15;98017.34;;;22.86;31.76
57574;BME280;63722;48.858;21.906;2023-03-04T10:59:45;98004.53;;;22.83;32.11
57574;BME280;63722;48.858;21.906;2023-03-04T11:05:36;97991.16;;;22.83;31.86
57574;BME280;63722;48.858;21.906;2023-03-04T11:07:51;97990.09;;;22.84;32.13
57574;BME280;63722;48.858;21.906;2023-03-04T11:10:23;97997.59;;;22.82;32.08
57574;BME280;63722;48.858;21.906;2023-03-04T11:12:52;97994.94;;;22.82;32.19
57574;BME280;63722;48.858;21.906;2023-03-04T11:15:21;97994.13;;;22.81;32.01
57574;BME280;63722;48.858;21.906;2023-03-04T11:18:09;97997.06;;;22.85;32.08
57574;BME280;63722;48.858;21.906;2023-03-04T11:20:40;97998.13;;;22.84;32.07
57574;BME280;63722;48.858;21.906;2023-03-04T11:23:12;97991.97;;;22.83;32.33
57574;BME280;63722;48.858;21.906;2023-03-04T11:25:47;97988.50;;;22.83;32.04
57574;BME280;63722;48.858;21.906;2023-03-04T11:28:21;97987.44;;;22.84;32.18
57574;BME280;63722;48.858;21.906;2023-03-04T11:30:55;97984.25;;;22.82;32.06
57574;BME280;63722;48.858;21.906;2023-03-04T11:33:40;97992.25;;;22.82;32.16
57574;BME280;63722;48.858;21.906;2023-03-04T11:38:49;97982.09;;;22.84;32.00
57574;BME280;63722;48.858;21.906;2023-03-04T11:41:40;97970.31;;;22.85;32.25
57574;BME280;63722;48.858;21.906;2023-03-04T11:44:11;97969.00;;;22.82;32.19
57574;BME280;63722;48.858;21.906;2023-03-04T11:46:49;97962.59;;;22.83;32.06
57574;BME280;63722;48.858;21.906;2023-03-04T11:52:13;97963.38;;;22.84;31.99
57574;BME280;63722;48.858;21.906;2023-03-04T12:00:09;97941.97;;;22.84;32.13
57574;BME280;63722;48.858;21.906;2023-03-04T12:08:22;97950.00;;;22.84;32.02
57574;BME280;63722;48.858;21.906;2023-03-04T12:11:02;97951.06;;;22.83;32.31
57574;BME280;63722;48.858;21.906;2023-03-04T12:13:41;97944.41;;;22.80;32.14
57574;BME280;63722;48.858;21.906;2023-03-04T12:22:02;97955.91;;;22.81;32.26
57574;BME280;63722;48.858;21.906;2023-03-04T12:40:38;97934.75;;;22.84;32.31
57574;BME280;63722;48.858;21.906;2023-03-04T12:43:22;97933.44;;;22.82;32.24
57574;BME280;63722;48.858;21.906;2023-03-04T12:54:40;97930.22;;;22.80;32.02
57574;BME280;63722;48.858;21.906;2023-03-04T12:59:59;97920.66;;;22.74;32.19
57574;BME280;63722;48.858;21.906;2023-03-04T13:08:10;97919.88;;;22.73;32.29
57574;BME280;63722;48.858;21.906;2023-03-04T13:10:39;97905.72;;;22.73;32.38
57574;BME280;63722;48.858;21.906;2023-03-04T13:13:04;97904.09;;;22.71;32.37
57574;BME280;63722;48.858;21.906;2023-03-04T13:15:37;97904.09;;;22.71;32.26
57574;BME280;63722;48.858;21.906;2023-03-04T13:18:48;97892.31;;;22.78;32.10
57574;BME280;63722;48.858;21.906;2023-03-04T13:23:32;97901.47;;;22.61;32.29
57574;BME280;63722;48.858;21.906;2023-03-04T13:28:25;97899.63;;;22.62;32.28
57574;BME280;63722;48.858;21.906;2023-03-04T13:35:59;97909.50;;;22.61;32.47
57574;BME280;63722;48.858;21.906;2023-03-04T13:41:21;97899.91;;;22.60;32.62
57574;BME280;63722;48.858;21.906;2023-03-04T13:43:53;97899.63;;;22.57;32.62
57574;BME280;63722;48.858;21.906;2023-03-04T14:01:34;97886.28;;;22.57;32.66
57574;BME280;63722;48.858;21.906;2023-03-04T14:04:30;97883.31;;;22.58;32.59
57574;BME280;63722;48.858;21.906;2023-03-04T14:06:56;97884.44;;;22.52;32.01
57574;BME280;63722;48.858;21.906;2023-03-04T14:09:25;97879.63;;;22.49;32.66
57574;BME280;63722;48.858;21.906;2023-03-04T14:11:53;97879.63;;;22.49;32.37
57574;BME280;63722;48.858;21.906;2023-03-04T14:14:57;97883.13;;;22.49;32.44
57574;BME280;63722;48.858;21.906;2023-03-04T14:17:30;97884.97;;;22.49;32.48
57574;BME280;63722;48.858;21.906;2023-03-04T14:19:58;97882.34;;;22.44;32.47
57574;BME280;63722;48.858;21.906;2023-03-04T14:22:32;97880.19;;;22.46;32.48
57574;BME280;63722;48.858;21.906;2023-03-04T14:27:37;97883.41;;;22.43;32.47
57574;BME280;63722;48.858;21.906;2023-03-04T14:30:17;97881.00;;;22.41;32.60
57574;BME280;63722;48.858;21.906;2023-03-04T14:32:43;97884.78;;;22.40;32.44
57574;BME280;63722;48.858;21.906;2023-03-04T14:35:19;97887.16;;;22.42;32.58
57574;BME280;63722;48.858;21.906;2023-03-04T14:38:05;97888.22;;;22.41;32.56
57574;BME280;63722;48.858;21.906;2023-03-04T14:40:40;97885.84;;;22.39;32.50
57574;BME280;63722;48.858;21.906;2023-03-04T14:43:17;97894.41;;;22.36;32.82
57574;BME280;63722;48.858;21.906;2023-03-04T14:45:44;97900.28;;;22.33;32.45